createdAt,value
2023-02-25T00:00:38.154Z,58.35
2023-02-25T00:03:11.479Z,58.67
2023-02-25T00:05:43.747Z,58.73
2023-02-25T00:08:18.271Z,59.10
2023-02-25T00:11:00.203Z,58.75
2023-02-25T00:13:32.348Z,58.75
2023-02-25T00:16:05.242Z,58.57
2023-02-25T00:18:37.304Z,58.75
2023-02-25T00:21:09.700Z,58.93
2023-02-25T00:23:46.425Z,58.80
2023-02-25T00:26:26.027Z,59.01
2023-02-25T00:29:02.312Z,59.11
2023-02-25T00:31:34.205Z,59.33
2023-02-25T00:34:06.337Z,58.89
2023-02-25T00:36:40.101Z,59.15
2023-02-25T00:39:11.998Z,59.17
2023-02-25T00:41:44.127Z,59.23
2023-02-25T00:44:15.814Z,59.38
2023-02-25T00:46:48.294Z,59.36
2023-02-25T00:49:31.690Z,59.58
2023-02-25T00:52:03.667Z,59.46
2023-02-25T00:54:35.461Z,59.55
2023-02-25T00:57:08.307Z,59.30
2023-02-25T00:59:40.752Z,59.24
2023-02-25T01:02:12.426Z,59.08
2023-02-25T01:04:44.768Z,58.28
2023-02-25T01:07:20.899Z,59.21
2023-02-25T01:09:55.953Z,59.08
2023-02-25T01:12:30.525Z,59.13
2023-02-25T01:15:03.295Z,59.17
2023-02-25T01:17:34.962Z,59.26
2023-02-25T01:20:11.765Z,59.61
2023-02-25T01:22:44.536Z,59.77
2023-02-25T01:25:17.697Z,59.69
2023-02-25T01:27:49.325Z,59.94
2023-02-25T01:30:21.369Z,59.51
2023-02-25T01:32:53.120Z,59.44
2023-02-25T01:35:24.936Z,59.70
2023-02-25T01:37:56.727Z,59.85
2023-02-25T01:40:28.492Z,59.94
2023-02-25T01:43:00.522Z,60.44
2023-02-25T01:45:33.265Z,60.78
2023-02-25T01:48:18.748Z,60.91
2023-02-25T01:50:57.993Z,61.72
2023-02-25T01:53:35.190Z,63.64
2023-02-25T01:56:07.782Z,64.45
2023-02-25T01:58:41.730Z,64.06
2023-02-25T02:01:19.103Z,65.01
2023-02-25T02:03:52.425Z,65.03
2023-02-25T02:06:24.314Z,65.29
2023-02-25T02:08:56.872Z,65.24
2023-02-25T02:11:31.273Z,66.21
2023-02-25T02:14:07.368Z,65.52
2023-02-25T02:17:15.158Z,65.63
2023-02-25T02:19:49.885Z,65.90
2023-02-25T02:22:51.787Z,65.28
2023-02-25T02:26:03.553Z,65.33
2023-02-25T02:28:47.280Z,65.33
2023-02-25T02:31:45.477Z,65.65
2023-02-25T02:34:40.436Z,65.20
2023-02-25T02:37:50.847Z,65.10
2023-02-25T02:40:47.519Z,65.32
2023-02-25T02:43:56.444Z,65.28
2023-02-25T02:46:45.688Z,65.62
2023-02-25T02:49:27.492Z,65.90
2023-02-25T02:52:17.913Z,66.13
2023-02-25T02:54:57.090Z,66.44
2023-02-25T02:57:31.055Z,65.84
2023-02-25T03:00:17.226Z,66.44
2023-02-25T03:02:55.756Z,66.29
2023-02-25T03:05:29.704Z,66.73
2023-02-25T03:08:12.700Z,66.77
2023-02-25T03:10:44.859Z,66.47
2023-02-25T03:13:17.055Z,66.79
2023-02-25T03:15:52.795Z,66.60
2023-02-25T03:18:39.076Z,65.72
2023-02-25T03:21:46.438Z,65.46
2023-02-25T03:24:22.893Z,65.59
2023-02-25T03:27:02.332Z,65.33
2023-02-25T03:29:35.072Z,65.73
2023-02-25T03:32:12.853Z,66.00
2023-02-25T03:34:48.986Z,66.27
2023-02-25T03:37:26.020Z,66.43
2023-02-25T03:40:01.236Z,66.01
2023-02-25T03:42:35.030Z,65.90
2023-02-25T03:45:28.272Z,65.24
2023-02-25T03:48:08.245Z,64.89
2023-02-25T03:50:48.081Z,64.84
2023-02-25T03:53:21.753Z,65.15
2023-02-25T03:56:00.621Z,64.63
2023-02-25T03:58:37.285Z,64.56
2023-02-25T04:01:28.910Z,64.67
2023-02-25T04:04:00.700Z,64.67
2023-02-25T04:06:32.424Z,63.85
2023-02-25T04:09:05.712Z,63.73
2023-02-25T04:11:54.026Z,63.12
2023-02-25T04:14:25.958Z,63.59
2023-02-25T04:16:57.970Z,63.53
2023-02-25T04:19:29.695Z,62.93
2023-02-25T04:22:07.916Z,62.65
2023-02-25T04:24:39.650Z,62.78
2023-02-25T04:27:15.550Z,62.94
2023-02-25T04:29:49.907Z,63.10
2023-02-25T04:32:21.719Z,63.37
2023-02-25T04:34:53.534Z,63.68
2023-02-25T04:37:28.163Z,63.64
2023-02-25T04:39:59.826Z,63.96
2023-02-25T04:42:34.503Z,64.55
2023-02-25T04:45:09.314Z,64.03
2023-02-25T04:47:41.232Z,63.74
2023-02-25T04:50:13.439Z,64.00
2023-02-25T04:52:45.154Z,64.42
2023-02-25T04:55:17.025Z,63.88
2023-02-25T04:57:51.780Z,63.64
2023-02-25T05:00:24.512Z,63.39
2023-02-25T05:03:00.157Z,63.31
2023-02-25T05:05:31.801Z,63.63
2023-02-25T05:08:04.374Z,63.03
2023-02-25T05:10:36.077Z,62.37
2023-02-25T05:13:08.816Z,62.24
2023-02-25T05:15:40.541Z,62.03
2023-02-25T05:18:12.983Z,61.91
2023-02-25T05:20:47.118Z,61.70
2023-02-25T05:23:19.075Z,61.62
2023-02-25T05:25:51.369Z,61.16
2023-02-25T05:28:25.871Z,60.70
2023-02-25T05:30:57.909Z,60.30
2023-02-25T05:33:29.881Z,60.38
2023-02-25T05:36:09.470Z,59.89
2023-02-25T05:38:41.977Z,60.02
2023-02-25T05:41:14.980Z,60.30
2023-02-25T05:43:49.878Z,60.30
2023-02-25T05:46:22.448Z,60.33
2023-02-25T05:48:55.061Z,59.62
2023-02-25T05:51:26.843Z,59.72
2023-02-25T05:53:58.646Z,59.83
2023-02-25T05:56:32.313Z,60.00
2023-02-25T05:59:04.161Z,59.95
2023-02-25T06:01:35.843Z,59.25
2023-02-25T06:04:07.510Z,59.29
2023-02-25T06:06:39.203Z,59.67
2023-02-25T06:09:10.898Z,59.06
2023-02-25T06:11:43.239Z,59.30
2023-02-25T06:14:17.822Z,59.14
2023-02-25T06:16:50.747Z,59.13
2023-02-25T06:19:26.833Z,59.18
2023-02-25T06:21:58.737Z,58.90
2023-02-25T06:24:30.425Z,58.73
2023-02-25T06:27:02.447Z,59.55
2023-02-25T06:29:34.148Z,59.04
2023-02-25T06:32:05.967Z,58.97
2023-02-25T06:34:38.714Z,59.51
2023-02-25T06:37:14.994Z,59.04
2023-02-25T06:39:52.614Z,59.53
2023-02-25T06:42:24.674Z,59.16
2023-02-25T06:44:56.368Z,59.34
2023-02-25T06:47:32.162Z,58.96
2023-02-25T06:50:07.812Z,59.32
2023-02-25T06:52:41.918Z,59.10
2023-02-25T06:55:13.900Z,58.99
2023-02-25T06:57:45.573Z,58.96
2023-02-25T07:00:18.860Z,58.73
2023-02-25T07:02:50.522Z,58.78
2023-02-25T07:05:22.255Z,58.30
2023-02-25T07:07:53.906Z,58.68
2023-02-25T07:10:25.707Z,58.31
2023-02-25T07:12:57.367Z,58.66
2023-02-25T07:15:33.241Z,58.58
2023-02-25T07:18:05.378Z,58.37
2023-02-25T07:20:39.676Z,58.47
2023-02-25T07:23:11.362Z,57.99
2023-02-25T07:25:43.077Z,57.75
2023-02-25T07:28:14.796Z,58.06
2023-02-25T07:30:47.025Z,58.00
2023-02-25T07:33:18.793Z,58.01
2023-02-25T07:35:54.549Z,58.05
2023-02-25T07:38:26.414Z,57.69
2023-02-25T07:41:04.033Z,57.58
2023-02-25T07:43:36.188Z,57.21
2023-02-25T07:46:09.029Z,57.16
2023-02-25T07:48:42.615Z,57.15
2023-02-25T07:51:19.513Z,57.64
2023-02-25T07:53:53.304Z,58.05
2023-02-25T07:56:27.654Z,58.42
2023-02-25T07:59:01.437Z,59.04
2023-02-25T08:01:39.552Z,59.19
2023-02-25T08:04:11.781Z,59.62
2023-02-25T08:06:47.482Z,60.11
2023-02-25T08:09:19.179Z,60.58
2023-02-25T08:11:52.032Z,61.71
2023-02-25T08:14:23.943Z,66.61
2023-02-25T08:16:57.423Z,63.48
2023-02-25T08:19:29.480Z,63.53
2023-02-25T08:22:01.184Z,64.17
2023-02-25T08:24:32.980Z,64.81
2023-02-25T08:27:07.497Z,65.16
2023-02-25T08:29:40.214Z,64.95
2023-02-25T08:32:12.032Z,65.46
2023-02-25T08:34:44.398Z,65.26
2023-02-25T08:37:16.081Z,65.18
2023-02-25T08:39:48.132Z,64.99
2023-02-25T08:42:23.589Z,65.55
2023-02-25T08:44:55.541Z,65.08
2023-02-25T08:47:30.650Z,64.33
2023-02-25T08:50:05.465Z,64.21
2023-02-25T08:52:37.164Z,63.72
2023-02-25T08:55:11.633Z,63.72
2023-02-25T08:57:43.716Z,63.80
2023-02-25T09:00:15.640Z,63.30
2023-02-25T09:02:48.497Z,63.87
2023-02-25T09:05:21.056Z,63.31
2023-02-25T09:07:52.815Z,62.82
2023-02-25T09:10:24.701Z,62.64
2023-02-25T09:12:56.406Z,62.46
2023-02-25T09:15:29.127Z,62.47
2023-02-25T09:18:09.126Z,61.97
2023-02-25T09:20:40.752Z,61.55
2023-02-25T09:23:12.502Z,61.47
2023-02-25T09:25:45.677Z,61.59
2023-02-25T09:28:18.679Z,61.77
2023-02-25T09:30:56.538Z,61.23
2023-02-25T09:33:30.353Z,61.26
2023-02-25T09:36:13.782Z,61.04
2023-02-25T09:38:48.276Z,60.70
2023-02-25T09:41:44.183Z,60.84
2023-02-25T09:44:17.518Z,60.73
2023-02-25T09:46:55.164Z,60.28
2023-02-25T09:49:41.144Z,61.12
2023-02-25T09:52:23.104Z,61.32
2023-02-25T09:55:07.021Z,61.67
2023-02-25T09:57:43.726Z,62.21
2023-02-25T10:00:21.296Z,62.73
2023-02-25T10:03:01.962Z,62.42
2023-02-25T10:06:10.608Z,62.64
2023-02-25T10:09:03.843Z,62.60
2023-02-25T10:11:46.464Z,62.87
2023-02-25T10:15:08.306Z,62.71
2023-02-25T10:18:16.932Z,62.51
2023-02-25T10:21:23.945Z,62.45
2023-02-25T10:24:21.582Z,62.04
2023-02-25T10:27:00.244Z,61.54
2023-02-25T10:29:40.960Z,60.77
2023-02-25T10:32:45.982Z,60.46
2023-02-25T10:35:29.134Z,60.10
2023-02-25T10:38:00.881Z,59.27
2023-02-25T10:40:32.965Z,58.96
2023-02-25T10:43:21.209Z,58.29
2023-02-25T10:46:29.577Z,57.74
2023-02-25T10:49:16.274Z,57.66
2023-02-25T10:52:16.026Z,57.74
2023-02-25T10:54:53.000Z,57.81
2023-02-25T10:57:34.131Z,58.10
2023-02-25T11:00:23.658Z,58.25
2023-02-25T11:02:58.322Z,59.78
2023-02-25T11:05:42.133Z,60.53
2023-02-25T11:08:33.866Z,61.82
2023-02-25T11:11:15.948Z,62.37
2023-02-25T11:14:09.574Z,62.62
2023-02-25T11:16:44.462Z,62.72
2023-02-25T11:19:52.828Z,62.18
2023-02-25T11:22:36.121Z,62.10
2023-02-25T11:25:17.314Z,61.93
2023-02-25T11:27:55.957Z,61.64
2023-02-25T11:30:35.329Z,61.26
2023-02-25T11:33:25.684Z,61.11
2023-02-25T11:36:02.130Z,60.88
2023-02-25T11:38:37.080Z,60.64
2023-02-25T11:41:18.742Z,60.51
2023-02-25T11:43:50.576Z,60.15
2023-02-25T11:46:31.597Z,60.39
2023-02-25T11:49:24.235Z,59.58
2023-02-25T11:52:38.614Z,59.29
2023-02-25T11:55:34.743Z,58.62
2023-02-25T11:58:34.035Z,55.56
2023-02-25T12:01:37.328Z,55.71
2023-02-25T12:04:36.956Z,54.77
2023-02-25T12:08:12.505Z,53.69
2023-02-25T12:11:06.067Z,53.78
2023-02-25T12:13:46.987Z,53.29
2023-02-25T12:16:46.438Z,53.42
2023-02-25T12:19:57.282Z,53.64
2023-02-25T12:23:01.281Z,53.52
2023-02-25T12:25:55.705Z,53.07
2023-02-25T12:29:01.409Z,53.41
2023-02-25T12:31:44.791Z,53.56
2023-02-25T12:34:54.313Z,53.54
2023-02-25T12:37:53.858Z,53.78
2023-02-25T12:40:48.625Z,53.75
2023-02-25T12:43:29.870Z,53.65
2023-02-25T12:46:20.993Z,53.59
2023-02-25T12:49:01.692Z,53.66
2023-02-25T12:51:47.258Z,53.03
2023-02-25T12:54:34.276Z,53.18
2023-02-25T12:57:15.754Z,53.19
2023-02-25T13:00:12.223Z,53.35
2023-02-25T13:03:27.859Z,52.39
2023-02-25T13:06:38.564Z,52.40
2023-02-25T13:09:24.705Z,52.33
2023-02-25T13:12:25.990Z,52.65
2023-02-25T13:15:22.367Z,52.75
2023-02-25T13:18:00.871Z,52.86
2023-02-25T13:21:05.348Z,52.68
2023-02-25T13:24:03.991Z,51.56
2023-02-25T13:26:57.372Z,51.80
2023-02-25T13:29:38.208Z,51.32
2023-02-25T13:32:28.789Z,51.46
2023-02-25T13:35:25.748Z,51.02
2023-02-25T13:38:23.758Z,50.81
2023-02-25T13:40:55.393Z,50.53
2023-02-25T13:43:49.404Z,50.93
2023-02-25T13:46:50.872Z,50.26
2023-02-25T13:49:50.204Z,49.98
2023-02-25T13:52:35.612Z,50.05
2023-02-25T13:55:45.282Z,49.65
2023-02-25T13:58:20.056Z,49.41
2023-02-25T14:01:01.002Z,49.97
2023-02-25T14:03:41.735Z,49.47
2023-02-25T14:06:44.317Z,49.63
2023-02-25T14:09:40.556Z,49.54
2023-02-25T14:12:41.182Z,50.02
2023-02-25T14:15:36.036Z,50.35
2023-02-25T14:18:33.778Z,50.38
2023-02-25T14:21:36.266Z,50.75
2023-02-25T14:24:32.240Z,50.89
2023-02-25T14:27:22.548Z,51.43
2023-02-25T14:30:06.580Z,51.32
2023-02-25T14:33:24.801Z,51.00
2023-02-25T14:36:16.262Z,51.26
2023-02-25T14:39:23.987Z,51.87
2023-02-25T14:42:30.447Z,52.21
2023-02-25T14:45:12.389Z,52.50
2023-02-25T14:48:10.648Z,51.67
2023-02-25T14:51:12.431Z,52.02
2023-02-25T14:54:20.715Z,51.54
2023-02-25T14:57:36.606Z,51.96
2023-02-25T15:00:42.648Z,51.31
2023-02-25T15:03:16.188Z,51.70
2023-02-25T15:05:53.623Z,51.69
2023-02-25T15:08:51.900Z,51.68
2023-02-25T15:12:02.867Z,51.64
2023-02-25T15:14:48.674Z,51.26
2023-02-25T15:17:44.057Z,51.32
2023-02-25T15:20:38.946Z,51.72
2023-02-25T15:23:19.810Z,51.88
2023-02-25T15:26:21.976Z,52.25
2023-02-25T15:28:54.983Z,52.60
2023-02-25T15:31:33.937Z,52.50
2023-02-25T15:34:53.966Z,52.01
2023-02-25T15:37:57.945Z,51.85
2023-02-25T15:40:51.235Z,52.01
2023-02-25T15:43:53.901Z,51.80
2023-02-25T15:46:42.619Z,52.55
2023-02-25T15:49:17.203Z,52.23
2023-02-25T15:51:56.349Z,52.17
2023-02-25T15:54:27.946Z,51.98
2023-02-25T15:57:11.792Z,52.03
2023-02-25T15:59:48.316Z,52.63
2023-02-25T16:02:29.129Z,52.60
2023-02-25T16:05:10.060Z,52.91
2023-02-25T16:07:52.056Z,52.95
2023-02-25T16:10:30.662Z,52.67
2023-02-25T16:13:04.999Z,53.22
2023-02-25T16:15:42.229Z,53.46
2023-02-25T16:18:42.248Z,53.38
2023-02-25T16:21:29.983Z,53.43
2023-02-25T16:24:08.005Z,53.83
2023-02-25T16:26:55.834Z,53.62
2023-02-25T16:29:35.549Z,53.60
2023-02-25T16:32:20.081Z,53.94
2023-02-25T16:35:14.598Z,54.04
2023-02-25T16:38:12.113Z,54.23
2023-02-25T16:40:45.227Z,54.01
2023-02-25T16:43:29.919Z,52.93
2023-02-25T16:46:03.054Z,52.48
2023-02-25T16:48:38.915Z,53.25
2023-02-25T16:51:21.294Z,52.71
2023-02-25T16:54:01.217Z,52.55
2023-02-25T16:56:36.123Z,52.43
2023-02-25T16:59:10.727Z,52.56
2023-02-25T17:02:17.633Z,52.78
2023-02-25T17:04:55.967Z,53.50
2023-02-25T17:07:30.208Z,53.33
2023-02-25T17:10:04.892Z,52.94
2023-02-25T17:12:47.539Z,53.53
2023-02-25T17:15:28.586Z,53.72
2023-02-25T17:18:32.803Z,53.76
2023-02-25T17:21:17.674Z,53.61
2023-02-25T17:23:50.589Z,53.78
2023-02-25T17:26:25.240Z,54.58
2023-02-25T17:28:58.623Z,54.60
2023-02-25T17:31:41.995Z,54.83
2023-02-25T17:34:17.704Z,55.16
2023-02-25T17:36:50.463Z,54.85
2023-02-25T17:39:22.716Z,55.35
2023-02-25T17:41:57.197Z,55.17
2023-02-25T17:44:44.538Z,55.45
2023-02-25T17:47:24.535Z,55.82
2023-02-25T17:49:56.947Z,56.18
2023-02-25T17:52:32.071Z,56.53
2023-02-25T17:55:23.772Z,56.49
2023-02-25T17:58:05.400Z,56.38
2023-02-25T18:00:39.171Z,56.54
2023-02-25T18:03:22.560Z,56.82
2023-02-25T18:05:59.511Z,56.64
2023-02-25T18:08:50.134Z,56.07
2023-02-25T18:11:37.876Z,57.00
2023-02-25T18:14:33.203Z,57.32
2023-02-25T18:17:23.763Z,56.96
2023-02-25T18:20:02.059Z,57.92
2023-02-25T18:22:45.460Z,58.22
2023-02-25T18:25:31.184Z,58.02
2023-02-25T18:28:07.360Z,58.33
2023-02-25T18:30:39.179Z,58.07
2023-02-25T18:33:12.329Z,58.15
2023-02-25T18:35:46.972Z,59.22
2023-02-25T18:38:21.552Z,58.79
2023-02-25T18:40:54.564Z,59.51
2023-02-25T18:43:34.510Z,60.17
2023-02-25T18:46:06.661Z,60.04
2023-02-25T18:48:38.517Z,60.24
2023-02-25T18:51:13.896Z,61.13
2023-02-25T18:53:46.719Z,61.06
2023-02-25T18:56:20.653Z,61.94
2023-02-25T18:58:54.722Z,62.50
2023-02-25T19:01:31.186Z,63.16
2023-02-25T19:04:08.532Z,63.50
2023-02-25T19:06:44.325Z,63.96
2023-02-25T19:09:16.135Z,64.15
2023-02-25T19:11:47.975Z,64.99
2023-02-25T19:14:20.263Z,64.90
2023-02-25T19:16:51.905Z,65.33
2023-02-25T19:19:23.578Z,65.46
2023-02-25T19:21:55.995Z,65.67
2023-02-25T19:24:30.464Z,64.79
2023-02-25T19:27:02.331Z,64.70
2023-02-25T19:29:34.068Z,64.71
2023-02-25T19:32:05.861Z,64.86
2023-02-25T19:34:40.811Z,64.24
2023-02-25T19:37:15.986Z,64.57
2023-02-25T19:39:48.065Z,64.95
2023-02-25T19:42:19.854Z,65.39
2023-02-25T19:44:52.661Z,65.46
2023-02-25T19:47:26.321Z,65.46
2023-02-25T19:49:58.007Z,65.97
2023-02-25T19:52:30.808Z,65.08
2023-02-25T19:55:04.662Z,65.58
2023-02-25T19:57:37.961Z,65.61
2023-02-25T20:00:14.028Z,66.03
2023-02-25T20:02:46.171Z,66.11
2023-02-25T20:05:17.992Z,66.43
2023-02-25T20:07:49.826Z,66.34
2023-02-25T20:10:22.483Z,66.65
2023-02-25T20:12:54.563Z,67.23
2023-02-25T20:15:26.237Z,67.52
2023-02-25T20:17:58.423Z,67.72
2023-02-25T20:20:30.094Z,68.25
2023-02-25T20:23:01.817Z,68.39
2023-02-25T20:25:33.475Z,68.73
2023-02-25T20:28:06.493Z,69.29
2023-02-25T20:30:38.802Z,69.19
2023-02-25T20:33:11.740Z,69.70
2023-02-25T20:35:43.564Z,69.87
2023-02-25T20:38:27.136Z,70.24
2023-02-25T20:40:58.941Z,70.57
2023-02-25T20:43:33.686Z,70.39
2023-02-25T20:46:07.838Z,71.06
2023-02-25T20:48:40.759Z,71.33
2023-02-25T20:51:12.711Z,71.44
2023-02-25T20:53:45.305Z,71.83
2023-02-25T20:56:21.504Z,72.02
2023-02-25T20:58:54.917Z,72.35
2023-02-25T21:01:26.658Z,72.34
2023-02-25T21:03:58.422Z,72.19
2023-02-25T21:06:31.376Z,72.19
2023-02-25T21:09:07.135Z,72.32
2023-02-25T21:11:38.858Z,72.47
2023-02-25T21:14:11.110Z,72.61
2023-02-25T21:16:42.976Z,73.03
2023-02-25T21:19:14.761Z,73.28
2023-02-25T21:21:46.419Z,72.90
2023-02-25T21:24:21.953Z,72.89
2023-02-25T21:26:53.675Z,72.39
2023-02-25T21:29:28.771Z,72.91
2023-02-25T21:32:05.000Z,73.40
2023-02-25T21:34:37.826Z,73.48
2023-02-25T21:37:14.052Z,73.00
2023-02-25T21:39:45.771Z,72.92
2023-02-25T21:42:17.834Z,73.15
2023-02-25T21:44:51.617Z,73.80
2023-02-25T21:47:23.817Z,72.68
2023-02-25T21:49:55.578Z,73.29
2023-02-25T21:52:27.236Z,73.46
2023-02-25T21:54:58.989Z,73.39
2023-02-25T21:57:30.656Z,73.84
2023-02-25T22:00:06.088Z,74.24
2023-02-25T22:02:46.536Z,73.59
2023-02-25T22:05:18.844Z,73.84
2023-02-25T22:07:53.667Z,73.14
2023-02-25T22:10:25.912Z,74.10
2023-02-25T22:13:01.020Z,74.52
2023-02-25T22:15:38.228Z,74.67
2023-02-25T22:18:09.856Z,74.96
2023-02-25T22:20:41.527Z,74.96
2023-02-25T22:23:13.224Z,75.15
2023-02-25T22:25:44.910Z,75.54
2023-02-25T22:28:16.650Z,75.42
2023-02-25T22:30:48.586Z,75.10
2023-02-25T22:33:20.317Z,75.76
2023-02-25T22:36:01.965Z,75.72
2023-02-25T22:38:41.287Z,75.12
2023-02-25T22:41:22.944Z,75.33
2023-02-25T22:43:55.069Z,75.05
2023-02-25T22:46:30.017Z,75.52
2023-02-25T22:49:02.467Z,75.45
2023-02-25T22:51:36.776Z,75.10
2023-02-25T22:54:13.901Z,75.31
2023-02-25T22:56:47.068Z,75.37
2023-02-25T22:59:18.917Z,76.05
2023-02-25T23:01:50.612Z,75.22
2023-02-25T23:04:22.269Z,75.38
2023-02-25T23:06:55.761Z,75.49
2023-02-25T23:09:27.659Z,75.66
2023-02-25T23:12:00.032Z,76.15
2023-02-25T23:14:31.984Z,75.84
2023-02-25T23:17:06.690Z,76.07
2023-02-25T23:19:38.865Z,75.98
2023-02-25T23:22:13.276Z,76.29
2023-02-25T23:24:44.998Z,76.01
2023-02-25T23:27:18.729Z,75.38
2023-02-25T23:29:50.393Z,75.89
2023-02-25T23:32:22.211Z,76.12
2023-02-25T23:34:53.971Z,75.97
2023-02-25T23:37:26.023Z,76.36
2023-02-25T23:39:58.012Z,76.35
2023-02-25T23:42:30.542Z,76.44
2023-02-25T23:45:02.325Z,76.55
2023-02-25T23:47:36.685Z,76.56
2023-02-25T23:50:18.044Z,77.28
2023-02-25T23:52:56.736Z,77.23
2023-02-25T23:55:29.297Z,76.83
2023-02-25T23:58:01.364Z,77.05
